Time;durP1;ratioP1;P1;durP2;ratioP2;P2;SDS_P1;SDS_P2;PMS_P1;PMS_P2;Temp;Humidity;BMP_temperature;BMP_pressure;BME280_temperature;BME280_humidity;BME280_pressure;Samples;Min_cycle;Max_cycle;Signal;HPM_P1;HPM_P2
2021/10/21 00:02:21;;;;;;;7.88;5.25;;;16.00;91.60;;;;;;6278008;22;20006;-72
2021/10/21 00:04:50;;;;;;;9.15;6.28;;;15.80;92.40;;;;;;6278344;22;20364;-72
2021/10/21 00:07:16;;;;;;;10.60;5.97;;;15.60;94.00;;;;;;6279355;22;20071;-71
2021/10/21 00:09:41;;;;;;;10.18;5.80;;;15.40;94.90;;;;;;6251342;22;20085;-73
2021/10/21 00:12:07;;;;;;;8.10;5.30;;;15.10;96.50;;;;;;6250104;22;20040;-72
2021/10/21 00:14:34;;;;;;;10.70;6.25;;;14.60;97.40;;;;;;6280852;22;19999;-72
2021/10/21 00:16:59;;;;;;;11.43;6.95;;;14.20;97.70;;;;;;6250507;22;20015;-72
2021/10/21 00:19:25;;;;;;;14.27;6.63;;;13.80;97.80;;;;;;6251486;22;19995;-72
2021/10/21 00:21:51;;;;;;;10.05;6.43;;;13.60;97.70;;;;;;6277719;22;20000;-72
2021/10/21 00:24:18;;;;;;;13.13;6.78;;;13.50;97.30;;;;;;6278235;22;20053;-72
2021/10/21 00:26:44;;;;;;;11.50;7.00;;;13.30;97.40;;;;;;6276233;22;20000;-75
2021/10/21 00:29:10;;;;;;;12.40;7.10;;;13.20;97.20;;;;;;6251854;22;20011;-73
2021/10/21 00:31:35;;;;;;;12.38;7.07;;;13.20;97.10;;;;;;6279520;22;20004;-73
2021/10/21 00:34:01;;;;;;;13.15;8.05;;;13.10;96.70;;;;;;6277711;22;20015;-74
2021/10/21 00:36:29;;;;;;;12.77;7.47;;;13.00;96.40;;;;;;6277525;22;20000;-74
2021/10/21 00:38:55;;;;;;;13.00;8.02;;;13.00;95.70;;;;;;6278925;22;20239;-73
2021/10/21 00:41:20;;;;;;;13.88;8.73;;;13.00;95.70;;;;;;6251562;22;20010;-72
2021/10/21 00:43:46;;;;;;;13.20;8.55;;;13.00;95.70;;;;;;6276776;22;20321;-74
2021/10/21 00:46:12;;;;;;;11.38;8.27;;;13.00;95.60;;;;;;6250032;22;20094;-74
2021/10/21 00:48:42;;;;;;;13.95;8.55;;;13.00;95.20;;;;;;6277961;22;20082;-75
2021/10/21 00:51:11;;;;;;;13.10;8.93;;;13.00;95.00;;;;;;6251288;22;20008;-74
2021/10/21 00:53:38;;;;;;;12.57;8.13;;;13.00;94.70;;;;;;6277561;22;20028;-73
2021/10/21 00:56:06;;;;;;;13.73;8.55;;;13.10;94.80;;;;;;6277341;22;20073;-74
2021/10/21 00:58:33;;;;;;;13.43;9.32;;;13.20;95.00;;;;;;6275444;22;20008;-73
2021/10/21 01:00:59;;;;;;;15.30;8.48;;;13.20;95.20;;;;;;6277144;22;20372;-74
2021/10/21 01:03:25;;;;;;;10.65;7.07;;;13.40;95.20;;;;;;6278100;22;20000;-74
2021/10/21 01:05:51;;;;;;;11.20;6.95;;;13.60;97.00;;;;;;6277744;22;20008;-75
2021/10/21 01:08:18;;;;;;;9.02;6.68;;;13.70;97.10;;;;;;6250798;22;20014;-73
2021/10/21 01:10:44;;;;;;;10.60;6.70;;;13.80;97.50;;;;;;6251581;22;20007;-75
2021/10/21 01:13:10;;;;;;;12.80;6.35;;;14.00;97.90;;;;;;6249450;22;20004;-73
2021/10/21 01:15:36;;;;;;;8.65;5.85;;;14.00;97.70;;;;;;6278400;22;20002;-76
2021/10/21 01:18:02;;;;;;;8.95;5.75;;;14.00;97.90;;;;;;6277774;22;20011;-76
2021/10/21 01:20:28;;;;;;;9.07;5.72;;;14.00;97.50;;;;;;6277390;22;20000;-75
2021/10/21 01:22:54;;;;;;;11.13;7.18;;;14.00;98.00;;;;;;6278151;22;20056;-74
2021/10/21 01:25:21;;;;;;;9.48;6.28;;;14.10;97.60;;;;;;6275791;22;20320;-76
2021/10/21 01:27:48;;;;;;;11.35;6.35;;;14.00;97.60;;;;;;6273055;22;20008;-77
2021/10/21 01:30:23;;;;;;;8.75;6.00;;;13.90;96.80;;;;;;6276023;22;20003;-77
2021/10/21 01:32:50;;;;;;;9.55;6.35;;;13.90;97.10;;;;;;6249114;22;20008;-78
2021/10/21 01:35:16;;;;;;;10.77;5.40;;;13.90;97.00;;;;;;6275093;22;20242;-76
2021/10/21 01:37:42;;;;;;;11.80;6.72;;;13.90;97.20;;;;;;6274366;22;20030;-77
2021/10/21 01:40:10;;;;;;;10.38;6.53;;;13.80;96.60;;;;;;6247508;22;20008;-76
2021/10/21 01:42:38;;;;;;;9.30;4.88;;;13.70;96.50;;;;;;6272930;22;20034;-75
2021/10/21 01:45:20;;;;;;;8.13;5.35;;;13.80;97.10;;;;;;6274999;22;20078;-77
2021/10/21 01:47:47;;;;;;;8.23;5.40;;;13.80;97.10;;;;;;6274596;22;20079;-75
2021/10/21 01:50:13;;;;;;;8.57;5.40;;;13.70;96.90;;;;;;6247934;22;20088;-77
2021/10/21 01:52:38;;;;;;;9.40;5.40;;;13.70;96.60;;;;;;6247870;22;20269;-75
2021/10/21 01:55:06;;;;;;;12.57;6.18;;;13.70;96.70;;;;;;6275340;22;20014;-76
2021/10/21 01:57:31;;;;;;;11.25;6.38;;;13.60;96.20;;;;;;6274793;22;20004;-77
2021/10/21 01:59:57;;;;;;;9.20;5.70;;;13.70;96.40;;;;;;6248949;22;20011;-77
2021/10/21 02:02:23;;;;;;;12.40;5.68;;;13.60;95.90;;;;;;6275429;22;19996;-76
2021/10/21 02:04:48;;;;;;;9.02;6.03;;;13.60;96.30;;;;;;6275933;22;20031;-77
2021/10/21 02:07:14;;;;;;;13.18;6.95;;;13.50;96.00;;;;;;6276848;22;20008;-76
2021/10/21 02:09:40;;;;;;;9.52;5.63;;;13.50;96.40;;;;;;6276997;22;20071;-74
2021/10/21 02:12:05;;;;;;;9.85;6.13;;;13.50;97.10;;;;;;6275281;22;20031;-77
2021/10/21 02:14:31;;;;;;;8.43;5.43;;;13.50;97.00;;;;;;6277512;22;20011;-78
2021/10/21 02:16:58;;;;;;;9.60;5.80;;;13.60;98.00;;;;;;6276347;22;20016;-77
2021/10/21 02:19:24;;;;;;;10.43;6.00;;;13.60;98.00;;;;;;6276363;22;19996;-77
2021/10/21 02:21:50;;;;;;;8.65;5.40;;;13.50;98.00;;;;;;6276506;22;20004;-76
2021/10/21 02:24:16;;;;;;;9.02;5.80;;;13.50;98.00;;;;;;6277240;22;20019;-76
2021/10/21 02:26:42;;;;;;;10.05;6.55;;;13.50;98.00;;;;;;6275557;22;20079;-76
2021/10/21 02:29:07;;;;;;;9.82;6.40;;;13.40;98.00;;;;;;6276587;22;20666;-76
2021/10/21 02:31:33;;;;;;;16.70;6.60;;;13.40;97.90;;;;;;6276688;22;20007;-78
2021/10/21 02:33:58;;;;;;;11.13;6.20;;;13.40;97.70;;;;;;6277104;22;20004;-79
2021/10/21 02:36:27;;;;;;;9.68;6.07;;;13.40;97.40;;;;;;6277024;22;20015;-75
2021/10/21 02:38:53;;;;;;;10.20;6.15;;;13.50;97.90;;;;;;6278082;22;20007;-76
2021/10/21 02:41:18;;;;;;;9.52;6.10;;;13.50;98.00;;;;;;6277559;22;20000;-74
2021/10/21 02:43:44;;;;;;;9.45;6.22;;;13.40;97.80;;;;;;6275506;22;20265;-75
2021/10/21 02:46:12;;;;;;;11.85;6.43;;;13.50;97.80;;;;;;6276356;22;20003;-74
2021/10/21 02:48:38;;;;;;;8.40;5.68;;;13.50;97.90;;;;;;6277513;22;20085;-76
2021/10/21 02:51:04;;;;;;;7.18;4.32;;;13.60;98.00;;;;;;6276914;22;20018;-74
2021/10/21 02:53:30;;;;;;;6.68;4.38;;;13.80;98.00;;;;;;6276856;22;20000;-74
2021/10/21 02:55:55;;;;;;;5.75;3.50;;;14.00;98.00;;;;;;6276616;22;20004;-74
2021/10/21 02:58:21;;;;;;;6.75;3.50;;;13.90;98.00;;;;;;6249060;22;20035;-77
2021/10/21 03:00:47;;;;;;;5.28;2.47;;;14.20;98.00;;;;;;6276742;22;19999;-74
2021/10/21 03:03:12;;;;;;;5.90;2.83;;;14.30;98.00;;;;;;6276576;22;20376;-76
2021/10/21 03:05:38;;;;;;;4.50;2.53;;;14.30;98.00;;;;;;6277296;22;20362;-74
2021/10/21 03:08:04;;;;;;;5.07;2.60;;;14.40;98.00;;;;;;6275772;22;20006;-74
2021/10/21 03:10:29;;;;;;;4.10;2.35;;;14.40;98.00;;;;;;6275998;22;20099;-74
2021/10/21 03:12:55;;;;;;;3.83;2.10;;;14.60;98.00;;;;;;6274197;22;20004;-74
2021/10/21 03:15:23;;;;;;;4.45;2.10;;;14.70;98.00;;;;;;6248887;22;20007;-74
2021/10/21 03:17:49;;;;;;;5.88;1.80;;;14.70;98.00;;;;;;6278107;22;20020;-72
2021/10/21 03:20:14;;;;;;;4.28;1.90;;;14.80;98.00;;;;;;6277109;22;20126;-74
2021/10/21 03:22:41;;;;;;;5.68;2.30;;;14.80;98.00;;;;;;6275896;22;20007;-75
2021/10/21 03:25:08;;;;;;;4.30;2.10;;;14.60;97.80;;;;;;6275882;22;20022;-74
2021/10/21 03:27:35;;;;;;;6.20;2.30;;;14.30;98.00;;;;;;6247164;22;20061;-74
2021/10/21 03:30:01;;;;;;;5.93;2.40;;;14.10;98.00;;;;;;6275780;22;20014;-76
2021/10/21 03:32:26;;;;;;;5.78;2.53;;;13.80;98.00;;;;;;6276537;22;20327;-79
2021/10/21 03:34:52;;;;;;;4.57;2.25;;;13.70;98.00;;;;;;6249657;22;20018;-75
2021/10/21 03:37:18;;;;;;;4.60;1.98;;;13.60;98.00;;;;;;6275963;22;20007;-76
2021/10/21 03:39:43;;;;;;;3.92;1.80;;;13.50;98.00;;;;;;6276626;22;20011;-74
2021/10/21 03:42:09;;;;;;;5.32;1.73;;;13.60;98.00;;;;;;6275270;22;20106;-75
2021/10/21 03:44:36;;;;;;;5.07;1.30;;;13.50;98.00;;;;;;6276148;22;19995;-74
2021/10/21 03:47:03;;;;;;;2.97;1.10;;;13.50;96.60;;;;;;6276503;22;20377;-74
2021/10/21 03:49:29;;;;;;;1.15;0.80;;;13.50;95.20;;;;;;6250135;22;20082;-74
2021/10/21 03:51:55;;;;;;;2.10;0.90;;;13.50;92.40;;;;;;6277289;22;20328;-74
2021/10/21 03:54:20;;;;;;;3.38;1.00;;;13.60;91.70;;;;;;6277113;22;20000;-75
2021/10/21 03:56:46;;;;;;;2.92;0.85;;;13.70;92.20;;;;;;6274951;22;20000;-74
2021/10/21 03:59:12;;;;;;;2.00;0.90;;;13.70;90.80;;;;;;6275833;22;20069;-75
2021/10/21 04:01:37;;;;;;;1.17;0.80;;;13.60;91.00;;;;;;6277495;22;20447;-75
2021/10/21 04:04:03;;;;;;;2.50;0.90;;;13.70;90.40;;;;;;6278360;22;20067;-74
2021/10/21 04:06:29;;;;;;;3.03;1.00;;;13.70;88.80;;;;;;6278119;22;20007;-81
2021/10/21 04:08:55;;;;;;;1.73;0.70;;;13.70;88.40;;;;;;6277548;22;20026;-76
2021/10/21 04:11:20;;;;;;;3.47;0.93;;;13.80;87.00;;;;;;6277379;22;20266;-75
2021/10/21 04:13:46;;;;;;;7.10;0.90;;;13.80;86.50;;;;;;6276225;22;20003;-74
2021/10/21 04:16:12;;;;;;;3.65;0.80;;;13.80;86.40;;;;;;6278973;22;20358;-73
2021/10/21 04:18:37;;;;;;;2.20;0.95;;;13.70;86.90;;;;;;6277731;22;20012;-75
2021/10/21 04:21:03;;;;;;;2.13;0.77;;;13.50;86.50;;;;;;6279458;22;20003;-74
2021/10/21 04:23:29;;;;;;;3.70;0.90;;;13.40;86.50;;;;;;6277267;22;19995;-75
2021/10/21 04:25:54;;;;;;;2.42;0.90;;;13.40;86.10;;;;;;6277363;22;20395;-74
2021/10/21 04:28:20;;;;;;;2.65;1.00;;;13.30;85.90;;;;;;6277200;22;20375;-75
2021/10/21 04:30:45;;;;;;;2.78;0.95;;;13.30;85.80;;;;;;6251962;22;20088;-74
2021/10/21 04:33:11;;;;;;;2.45;1.00;;;13.20;86.30;;;;;;6278590;22;20004;-73
2021/10/21 04:35:37;;;;;;;1.73;0.88;;;13.10;86.30;;;;;;6280251;22;20027;-73
2021/10/21 04:38:02;;;;;;;2.35;0.90;;;13.10;86.30;;;;;;6280057;22;20045;-74
2021/10/21 04:40:28;;;;;;;4.32;1.10;;;13.00;86.80;;;;;;6280453;22;19999;-73
2021/10/21 04:42:54;;;;;;;1.52;0.90;;;13.00;87.10;;;;;;6278501;22;20007;-73
2021/10/21 04:45:20;;;;;;;3.67;1.00;;;12.90;87.30;;;;;;6252855;22;20274;-73
2021/10/21 04:47:46;;;;;;;3.33;0.90;;;13.00;87.50;;;;;;6280396;22;20053;-72
2021/10/21 04:50:12;;;;;;;3.13;1.10;;;12.90;87.50;;;;;;6277758;22;20087;-71
2021/10/21 04:52:38;;;;;;;4.88;1.13;;;12.90;87.60;;;;;;6278975;22;20010;-74
2021/10/21 04:55:07;;;;;;;1.52;0.90;;;12.90;88.00;;;;;;6252291;22;20448;-73
2021/10/21 04:57:34;;;;;;;9.50;1.27;;;12.80;87.70;;;;;;6277736;22;20050;-72
2021/10/21 05:00:04;;;;;;;4.40;1.10;;;12.80;88.30;;;;;;6279669;22;20388;-73
2021/10/21 05:02:29;;;;;;;2.65;0.93;;;12.70;88.20;;;;;;6279873;22;19995;-73
2021/10/21 05:04:58;;;;;;;5.43;1.33;;;12.70;86.30;;;;;;6280264;22;20002;-73
2021/10/21 05:07:23;;;;;;;6.70;1.30;;;12.60;86.70;;;;;;6279951;22;20008;-73
2021/10/21 05:09:49;;;;;;;7.30;1.48;;;12.40;86.60;;;;;;6279554;22;20087;-72
2021/10/21 05:12:15;;;;;;;3.63;1.30;;;12.30;86.80;;;;;;6278899;22;20035;-71
2021/10/21 05:14:40;;;;;;;7.63;1.40;;;12.20;87.40;;;;;;6280292;22;20377;-71
2021/10/21 05:17:06;;;;;;;5.28;1.40;;;12.10;88.50;;;;;;6279997;22;20377;-71
2021/10/21 05:19:31;;;;;;;5.10;1.60;;;12.00;89.30;;;;;;6279947;22;20007;-71
2021/10/21 05:21:57;;;;;;;6.35;1.30;;;11.90;89.90;;;;;;6279990;22;20003;-73
2021/10/21 05:24:23;;;;;;;6.63;1.10;;;11.90;88.90;;;;;;6280589;22;20004;-72
2021/10/21 05:26:48;;;;;;;6.93;1.55;;;11.90;89.10;;;;;;6278949;22;20004;-73
2021/10/21 05:29:14;;;;;;;7.32;1.52;;;11.80;89.20;;;;;;6280089;22;20100;-72
2021/10/21 05:31:39;;;;;;;6.72;1.60;;;11.80;89.10;;;;;;6280268;22;20038;-73
2021/10/21 05:34:05;;;;;;;7.90;1.52;;;11.70;88.70;;;;;;6279881;22;20357;-71
2021/10/21 05:36:31;;;;;;;12.10;1.50;;;11.70;88.80;;;;;;6253000;22;20007;-71
2021/10/21 05:38:58;;;;;;;4.95;1.58;;;11.60;88.90;;;;;;6279629;22;20007;-72
2021/10/21 05:41:23;;;;;;;8.75;1.50;;;11.60;88.80;;;;;;6279920;22;20006;-72
2021/10/21 05:43:49;;;;;;;6.50;1.70;;;11.60;88.20;;;;;;6279082;22;20000;-72
2021/10/21 05:46:15;;;;;;;7.20;1.40;;;11.60;88.30;;;;;;6280252;22;20012;-72
2021/10/21 05:48:40;;;;;;;9.52;2.17;;;11.60;88.40;;;;;;6280074;22;20007;-72
2021/10/21 05:51:06;;;;;;;15.23;2.05;;;11.60;87.80;;;;;;6279432;22;20058;-72
2021/10/21 05:53:32;;;;;;;6.10;1.35;;;11.60;88.30;;;;;;6280200;22;20365;-74
2021/10/21 05:55:57;;;;;;;10.57;1.73;;;11.60;87.80;;;;;;6279886;22;20007;-72
2021/10/21 05:58:23;;;;;;;7.47;1.65;;;11.70;87.40;;;;;;6278469;22;20404;-73
2021/10/21 06:00:49;;;;;;;9.23;1.40;;;11.80;86.70;;;;;;6252835;22;19999;-72
2021/10/21 06:03:14;;;;;;;10.52;1.85;;;11.70;86.70;;;;;;6279766;22;20000;-72
2021/10/21 06:05:40;;;;;;;11.35;1.73;;;11.70;86.80;;;;;;6280026;22;20000;-71
2021/10/21 06:08:05;;;;;;;9.38;2.50;;;11.70;86.60;;;;;;6279865;22;20008;-72
2021/10/21 06:10:31;;;;;;;5.50;1.48;;;11.60;86.90;;;;;;6279672;22;20257;-72
2021/10/21 06:12:58;;;;;;;6.68;1.38;;;11.60;87.30;;;;;;6278679;22;20007;-72
2021/10/21 06:15:25;;;;;;;10.80;1.83;;;11.60;86.40;;;;;;6280045;22;20004;-72
2021/10/21 06:17:51;;;;;;;8.55;1.70;;;11.60;86.50;;;;;;6279693;22;20087;-72
2021/10/21 06:20:17;;;;;;;9.27;1.77;;;11.60;86.30;;;;;;6279570;22;20468;-72
2021/10/21 06:22:43;;;;;;;7.88;1.58;;;11.60;86.60;;;;;;6279034;22;20026;-72
2021/10/21 06:25:10;;;;;;;7.57;1.52;;;11.60;86.30;;;;;;6279534;22;20000;-72
2021/10/21 06:27:37;;;;;;;6.13;1.73;;;11.60;86.00;;;;;;6278313;22;20091;-72
2021/10/21 06:30:04;;;;;;;7.95;1.67;;;11.60;85.20;;;;;;6279466;22;20004;-72
2021/10/21 06:32:33;;;;;;;11.32;1.52;;;11.70;84.80;;;;;;6253034;22;20004;-72
2021/10/21 06:34:59;;;;;;;10.02;1.77;;;11.70;84.80;;;;;;6279864;22;20007;-72
2021/10/21 06:37:25;;;;;;;11.02;2.13;;;11.70;84.50;;;;;;6279819;22;20004;-70
2021/10/21 06:39:54;;;;;;;9.77;1.70;;;11.80;84.60;;;;;;6279399;22;20042;-71
2021/10/21 06:42:22;;;;;;;7.80;1.60;;;11.80;84.50;;;;;;6278312;22;19996;-71
2021/10/21 06:44:47;;;;;;;8.45;1.50;;;11.80;84.40;;;;;;6279529;22;20067;-70
2021/10/21 06:47:13;;;;;;;9.05;2.03;;;11.90;84.70;;;;;;6279566;22;20023;-70
2021/10/21 06:49:39;;;;;;;8.90;1.92;;;11.90;84.70;;;;;;6279689;22;20097;-70
2021/10/21 06:52:04;;;;;;;11.70;1.58;;;11.90;84.20;;;;;;6279439;22;19996;-71
2021/10/21 06:54:30;;;;;;;4.78;1.48;;;11.90;83.70;;;;;;6279646;22;20003;-73
2021/10/21 06:56:58;;;;;;;11.45;2.22;;;11.90;83.90;;;;;;6278228;22;20004;-72
2021/10/21 06:59:24;;;;;;;5.97;1.30;;;11.90;83.40;;;;;;6279459;22;20031;-72
2021/10/21 07:01:50;;;;;;;11.77;1.60;;;11.90;83.80;;;;;;6279669;22;19995;-71
2021/10/21 07:04:16;;;;;;;8.88;2.17;;;11.90;83.60;;;;;;6279789;22;20011;-71
2021/10/21 07:06:42;;;;;;;9.20;1.50;;;11.90;83.90;;;;;;6279480;22;20006;-72
2021/10/21 07:09:07;;;;;;;9.23;1.70;;;11.90;83.60;;;;;;6252029;22;20003;-71
2021/10/21 07:11:33;;;;;;;7.15;1.52;;;11.90;83.30;;;;;;6278120;22;20438;-70
2021/10/21 07:13:59;;;;;;;12.70;2.53;;;11.80;83.60;;;;;;6279761;22;20004;-71
2021/10/21 07:16:25;;;;;;;6.13;1.23;;;11.80;83.70;;;;;;6278948;22;20003;-73
2021/10/21 07:18:51;;;;;;;7.68;1.77;;;11.80;83.50;;;;;;6279643;22;20004;-71
2021/10/21 07:21:19;;;;;;;12.20;1.38;;;11.80;83.10;;;;;;6279214;22;20419;-71
2021/10/21 07:23:46;;;;;;;16.27;2.10;;;11.90;83.10;;;;;;6279627;22;20003;-72
2021/10/21 07:26:13;;;;;;;7.75;1.65;;;11.90;82.90;;;;;;6279197;22;20012;-71
2021/10/21 07:28:39;;;;;;;7.40;1.77;;;12.00;82.50;;;;;;6277925;22;20000;-71
2021/10/21 07:31:05;;;;;;;8.63;1.77;;;12.10;82.60;;;;;;6279242;22;20003;-73
2021/10/21 07:33:31;;;;;;;5.53;1.65;;;12.20;82.50;;;;;;6279592;22;19999;-71
2021/10/21 07:35:57;;;;;;;8.80;1.40;;;12.30;81.80;;;;;;6279400;22;20004;-72
2021/10/21 07:38:23;;;;;;;7.15;1.60;;;12.30;81.20;;;;;;6281196;22;20006;-72
2021/10/21 07:40:49;;;;;;;11.82;1.63;;;12.30;81.70;;;;;;6281085;22;19996;-72
2021/10/21 07:43:15;;;;;;;4.13;1.05;;;12.20;81.70;;;;;;6280087;22;20010;-72
2021/10/21 07:45:42;;;;;;;12.52;1.45;;;12.30;81.70;;;;;;6281376;22;20011;-72
2021/10/21 07:48:08;;;;;;;6.03;1.90;;;12.30;81.00;;;;;;6281287;22;20000;-70
2021/10/21 07:50:38;;;;;;;6.93;2.00;;;12.40;81.00;;;;;;6281366;22;20004;-71
2021/10/21 07:53:07;;;;;;;8.48;1.83;;;12.40;80.90;;;;;;6254279;22;20007;-71
2021/10/21 07:55:34;;;;;;;10.15;1.52;;;12.20;81.80;;;;;;6281299;22;20015;-72
2021/10/21 07:57:59;;;;;;;10.75;1.85;;;12.20;82.40;;;;;;6279552;22;20057;-72
2021/10/21 08:00:26;;;;;;;3.97;1.30;;;12.30;82.90;;;;;;6281089;22;20003;-72
2021/10/21 08:02:52;;;;;;;4.65;1.10;;;12.40;82.20;;;;;;6281458;22;20256;-72
2021/10/21 08:05:17;;;;;;;6.55;1.55;;;12.50;82.30;;;;;;6280896;22;20071;-71
2021/10/21 08:07:46;;;;;;;9.85;2.20;;;12.50;82.50;;;;;;6281288;22;20232;-72
2021/10/21 08:10:13;;;;;;;4.93;1.30;;;12.40;83.00;;;;;;6280987;22;20006;-71
2021/10/21 08:12:39;;;;;;;3.80;1.02;;;12.40;83.20;;;;;;6279407;22;20401;-72
2021/10/21 08:15:07;;;;;;;5.15;1.33;;;12.30;82.60;;;;;;6281029;22;20000;-71
2021/10/21 08:17:33;;;;;;;4.80;1.13;;;12.10;81.70;;;;;;6280772;22;20099;-72
2021/10/21 08:19:59;;;;;;;3.15;1.10;;;12.30;82.00;;;;;;6280812;22;20003;-72
2021/10/21 08:22:26;;;;;;;7.28;1.10;;;12.40;81.70;;;;;;6280951;22;19996;-72
2021/10/21 08:24:52;;;;;;;6.55;1.23;;;12.40;81.30;;;;;;6280932;22;20087;-70
2021/10/21 08:27:18;;;;;;;12.82;1.48;;;12.50;80.90;;;;;;6279426;22;20003;-71
2021/10/21 08:29:44;;;;;;;3.83;0.95;;;12.90;78.80;;;;;;6280857;22;20078;-71
2021/10/21 08:32:12;;;;;;;8.00;1.20;;;12.50;80.20;;;;;;6280988;22;20000;-72
2021/10/21 08:34:38;;;;;;;2.17;0.95;;;12.30;81.20;;;;;;6280926;22;20007;-71
2021/10/21 08:37:05;;;;;;;4.70;1.52;;;12.10;81.20;;;;;;6280824;22;20038;-73
2021/10/21 08:39:35;;;;;;;6.32;1.65;;;12.30;81.50;;;;;;6280987;22;20376;-72
2021/10/21 08:42:01;;;;;;;6.85;1.40;;;12.60;80.10;;;;;;6279389;22;20006;-73
2021/10/21 08:44:27;;;;;;;5.22;0.90;;;12.70;80.00;;;;;;6280816;22;20091;-73
2021/10/21 08:46:57;;;;;;;6.13;1.30;;;12.70;80.20;;;;;;6254051;22;20031;-71
2021/10/21 08:49:23;;;;;;;4.38;1.30;;;12.70;80.90;;;;;;6280305;22;20003;-73
2021/10/21 08:51:53;;;;;;;6.28;0.90;;;12.60;80.00;;;;;;6280777;22;20000;-72
2021/10/21 08:54:18;;;;;;;4.68;1.30;;;12.50;80.90;;;;;;6280726;22;20004;-73
2021/10/21 08:56:46;;;;;;;2.20;0.80;;;12.40;79.90;;;;;;6278970;22;20050;-72
2021/10/21 08:59:11;;;;;;;5.85;1.30;;;12.40;79.30;;;;;;6280826;22;20242;-71
2021/10/21 09:01:43;;;;;;;4.78;1.20;;;12.50;79.40;;;;;;6280530;22;20015;-72
2021/10/21 09:09:20;;;;;;;5.38;1.38;;;12.10;80.60;;;;;;6290829;22;20054;-72
2021/10/21 09:12:03;;;;;;;3.80;1.00;;;12.20;80.70;;;;;;6278786;22;20102;-73
2021/10/21 09:14:37;;;;;;;3.72;1.20;;;12.10;80.00;;;;;;6280613;22;20425;-72
2021/10/21 09:17:06;;;;;;;4.35;1.20;;;12.00;80.10;;;;;;6253611;22;20391;-73
2021/10/21 09:19:32;;;;;;;2.65;0.77;;;12.00;80.60;;;;;;6280062;22;20269;-72
2021/10/21 09:21:59;;;;;;;3.60;0.93;;;11.90;80.80;;;;;;6280601;22;19995;-72
2021/10/21 09:24:39;;;;;;;5.22;0.90;;;11.90;81.20;;;;;;6280470;22;20257;-73
2021/10/21 09:27:14;;;;;;;3.03;1.15;;;11.90;81.10;;;;;;6278979;22;20004;-72
2021/10/21 09:29:51;;;;;;;3.83;0.90;;;11.90;80.80;;;;;;6280261;22;20023;-73
2021/10/21 09:32:18;;;;;;;4.63;0.88;;;11.90;80.50;;;;;;6280188;22;20281;-73
2021/10/21 09:34:50;;;;;;;3.70;1.10;;;11.80;80.80;;;;;;6280215;22;20258;-72
2021/10/21 09:37:27;;;;;;;6.35;1.42;;;11.90;81.40;;;;;;6280304;22;20031;-72
2021/10/21 09:40:08;;;;;;;4.25;1.10;;;11.90;82.10;;;;;;6280181;22;20065;-72
2021/10/21 09:42:34;;;;;;;6.68;1.38;;;11.80;81.90;;;;;;6278632;22;20400;-72
2021/10/21 09:45:16;;;;;;;3.97;1.05;;;11.80;82.00;;;;;;6280342;22;20008;-72
2021/10/21 09:47:53;;;;;;;4.68;0.98;;;11.70;82.10;;;;;;6252924;22;20061;-73
2021/10/21 09:50:32;;;;;;;2.92;0.90;;;11.70;82.50;;;;;;6280032;22;20003;-73
2021/10/21 09:53:31;;;;;;;3.05;1.20;;;11.80;82.60;;;;;;6279698;22;19999;-73
2021/10/21 09:56:00;;;;;;;5.55;1.35;;;11.60;82.50;;;;;;6253191;22;20003;-73
2021/10/21 09:58:38;;;;;;;5.10;1.40;;;11.60;83.30;;;;;;6278416;22;20082;-73
2021/10/21 10:01:33;;;;;;;7.30;1.20;;;11.50;83.70;;;;;;6279527;22;20032;-72
2021/10/21 10:03:59;;;;;;;6.47;1.73;;;11.50;84.10;;;;;;6253195;22;20010;-71
2021/10/21 10:06:24;;;;;;;3.63;1.10;;;11.50;84.70;;;;;;6279983;22;20361;-73
2021/10/21 10:08:50;;;;;;;4.65;1.20;;;11.50;85.00;;;;;;6280208;22;19996;-72
2021/10/21 10:11:19;;;;;;;5.53;1.35;;;11.40;85.90;;;;;;6279821;22;20071;-72
2021/10/21 10:13:53;;;;;;;6.43;1.17;;;11.20;88.10;;;;;;6252137;22;20419;-73
2021/10/21 10:16:19;;;;;;;4.20;1.17;;;10.80;92.30;;;;;;6279935;22;19999;-73
2021/10/21 10:18:46;;;;;;;2.22;0.80;;;10.00;95.00;;;;;;6279959;22;20113;-73
2021/10/21 10:21:22;;;;;;;2.45;1.08;;;9.60;96.60;;;;;;6279533;22;20425;-72
2021/10/21 10:23:57;;;;;;;2.10;0.90;;;9.40;95.50;;;;;;6279588;22;20003;-73
2021/10/21 10:26:54;;;;;;;2.83;1.10;;;9.20;96.70;;;;;;6251534;22;20056;-72
2021/10/21 10:29:45;;;;;;;2.00;1.10;;;9.00;97.70;;;;;;6249511;22;20077;-72
2021/10/21 10:32:33;;;;;;;3.80;1.45;;;9.00;96.50;;;;;;6279747;22;20007;-73
2021/10/21 10:35:05;;;;;;;4.38;1.50;;;8.90;96.70;;;;;;6253244;22;20007;-73
2021/10/21 10:37:31;;;;;;;2.28;1.00;;;8.90;96.70;;;;;;6279556;22;20004;-73
2021/10/21 10:40:02;;;;;;;3.15;0.90;;;9.00;95.90;;;;;;6252980;22;20384;-73
2021/10/21 10:42:31;;;;;;;3.53;0.90;;;9.50;95.50;;;;;;6250774;22;20096;-73
2021/10/21 10:44:57;;;;;;;1.90;0.90;;;10.00;94.10;;;;;;6279272;22;20000;-73
2021/10/21 10:47:50;;;;;;;2.38;1.10;;;11.00;92.30;;;;;;6279798;22;20269;-72
2021/10/21 10:50:21;;;;;;;2.10;0.70;;;11.80;89.30;;;;;;6240646;22;20133;-72
2021/10/21 10:53:07;;;;;;;2.78;0.80;;;12.40;86.30;;;;;;6279425;22;20391;-72
2021/10/21 10:55:50;;;;;;;1.45;0.70;;;12.40;85.60;;;;;;6252586;22;20302;-71
2021/10/21 10:58:26;;;;;;;4.05;0.90;;;12.40;85.60;;;;;;6278072;22;20269;-73
2021/10/21 11:00:55;;;;;;;1.10;0.60;;;12.70;85.50;;;;;;6279672;22;20054;-72
2021/10/21 11:03:34;;;;;;;6.75;0.85;;;12.80;83.90;;;;;;6279513;22;20000;-72
2021/10/21 11:06:04;;;;;;;2.75;1.45;;;12.90;84.50;;;;;;6279555;22;20003;-72
2021/10/21 11:09:02;;;;;;;6.05;1.00;;;13.00;82.80;;;;;;6279749;22;20077;-72
2021/10/21 11:11:41;;;;;;;4.13;0.90;;;13.90;82.20;;;;;;6278689;22;19996;-72
2021/10/21 11:14:39;;;;;;;2.83;1.00;;;13.70;81.50;;;;;;6281121;22;19996;-72
2021/10/21 11:17:06;;;;;;;2.70;0.85;;;13.70;81.40;;;;;;6254369;22;20385;-71
2021/10/21 11:19:45;;;;;;;4.20;1.08;;;13.40;82.20;;;;;;6281485;22;19995;-71
2021/10/21 11:22:31;;;;;;;3.47;0.80;;;13.90;82.00;;;;;;6281493;22;20004;-70
2021/10/21 11:25:00;;;;;;;7.60;1.00;;;14.10;80.50;;;;;;6281566;22;20016;-71
2021/10/21 11:27:34;;;;;;;2.30;0.70;;;14.10;80.80;;;;;;6279948;22;20354;-71
2021/10/21 11:30:27;;;;;;;2.78;0.90;;;13.80;80.70;;;;;;6281594;22;20007;-71
2021/10/21 11:32:55;;;;;;;2.47;0.70;;;13.80;80.90;;;;;;6275715;22;20011;-72
2021/10/21 11:35:24;;;;;;;3.97;1.20;;;13.70;80.50;;;;;;6281558;22;20006;-72
2021/10/21 11:37:51;;;;;;;2.53;0.98;;;13.60;80.50;;;;;;6280210;22;20327;-71
2021/10/21 11:40:27;;;;;;;3.20;1.23;;;13.10;81.90;;;;;;6254591;22;20247;-72
2021/10/21 11:43:41;;;;;;;4.45;1.05;;;13.30;81.50;;;;;;6278581;22;20000;-69
2021/10/21 11:46:13;;;;;;;2.95;1.20;;;13.30;80.90;;;;;;6280459;22;20006;-70
2021/10/21 11:48:40;;;;;;;3.47;1.10;;;13.00;81.30;;;;;;6280343;22;19999;-70
2021/10/21 11:51:10;;;;;;;2.70;0.75;;;13.40;81.30;;;;;;6281232;22;20065;-70
2021/10/21 11:53:38;;;;;;;2.30;0.73;;;13.70;79.90;;;;;;6254139;22;20429;-70
2021/10/21 11:56:04;;;;;;;3.55;1.10;;;14.20;79.50;;;;;;6280661;22;20000;-70
2021/10/21 11:58:34;;;;;;;5.45;1.27;;;14.40;78.80;;;;;;6279469;22;20000;-70
2021/10/21 12:01:08;;;;;;;4.68;1.48;;;14.40;77.70;;;;;;6280605;22;20079;-70
2021/10/21 12:03:42;;;;;;;4.90;1.23;;;14.60;78.50;;;;;;6253856;22;20082;-70
2021/10/21 12:06:19;;;;;;;3.75;1.10;;;15.20;78.40;;;;;;6280927;22;20004;-70
2021/10/21 12:08:54;;;;;;;5.93;0.90;;;15.90;76.00;;;;;;6280541;22;20053;-70
2021/10/21 12:11:20;;;;;;;1.38;0.60;;;15.80;74.20;;;;;;6279090;22;20074;-70
2021/10/21 12:13:48;;;;;;;3.63;0.90;;;15.30;76.00;;;;;;6279109;22;20004;-70
2021/10/21 12:16:19;;;;;;;2.35;0.85;;;15.00;76.00;;;;;;6279818;22;20011;-70
2021/10/21 12:18:45;;;;;;;4.78;1.10;;;14.80;77.30;;;;;;6279391;22;20007;-70
2021/10/21 12:21:10;;;;;;;2.50;0.98;;;14.40;77.80;;;;;;6252838;22;20409;-70
2021/10/21 12:23:53;;;;;;;3.63;1.02;;;14.00;78.70;;;;;;6279418;22;19996;-70
2021/10/21 12:26:28;;;;;;;4.20;1.13;;;13.50;81.00;;;;;;6279833;22;20077;-71
2021/10/21 12:29:01;;;;;;;4.53;1.23;;;13.30;81.90;;;;;;6279411;22;20007;-70
2021/10/21 12:31:36;;;;;;;8.00;2.10;;;13.00;82.60;;;;;;6279535;22;19999;-70
2021/10/21 12:34:09;;;;;;;6.25;1.75;;;12.80;82.20;;;;;;6280073;22;20298;-70
2021/10/21 12:36:42;;;;;;;4.72;1.65;;;12.60;82.90;;;;;;6280761;22;20519;-70
2021/10/21 12:39:11;;;;;;;6.80;1.73;;;12.70;82.50;;;;;;6280756;22;20014;-70
2021/10/21 12:42:08;;;;;;;5.75;1.20;;;12.90;82.30;;;;;;6252045;22;20359;-70
2021/10/21 12:44:37;;;;;;;4.20;1.05;;;12.90;80.10;;;;;;6280275;22;20091;-70
2021/10/21 12:47:22;;;;;;;4.18;1.10;;;13.00;80.70;;;;;;6280426;22;20027;-70
2021/10/21 12:49:56;;;;;;;8.02;1.95;;;12.90;79.70;;;;;;6279993;22;20003;-70
2021/10/21 12:52:31;;;;;;;8.05;1.98;;;12.80;80.50;;;;;;6253617;22;20010;-70
2021/10/21 12:55:33;;;;;;;3.47;1.33;;;12.50;79.80;;;;;;6280643;22;20007;-70
2021/10/21 12:58:09;;;;;;;2.30;1.02;;;12.30;79.90;;;;;;6200239;22;20014;-71
2021/10/21 13:00:43;;;;;;;3.45;0.93;;;12.20;79.50;;;;;;6278626;22;20007;-72